Pagrindinis puslapis
METAR-TAF:

METAR-TAF

Oro uostai :

Amari aerodromas

Amari, Estija

platuma: 59-15-44N, ilguma: 24-13-07E, Aukštis: 20 m

Dabartinis oras

Ataskaita buvo paskelbta 54 minutes, ne 11:50 UTC
Vėjas 8 kt iš Šiaurės Vakarų
Temperatūra -6°C
Drėgmė 86%
Slėgis 984 hPa
Matomumas 10 km arba daugiau
Apsiniaukę ne aukštis 1200 ft

METAR: EEEI 301150Z 31008KT 9999 OVC012 M06/M08 Q0984 NOSIG

Laikas: 14:44 (12:44 UTC)

Prognozė

Ataskaita buvo paskelbta 1 valandą ir 14 minutes, ne 11:30 UTC
Prognozė galioja nuo 30 metu 12 UTC su 01 metu 12 UTC
Vėjas 10 kt iš Šiaurės/Šiaurės Vakarų
Matomumas 10 km arba daugiau
Apsiniaukę ne aukštis 1200 ft
Tapsmas
nuo 30 metu 18 UTC su 30 metu 20 UTC
Išsisklaidę debesys ne aukštis 1500 ft
Laikinai
nuo 30 metu 16 UTC su 01 metu 04 UTC
Vėjas 14 kt iš Šiaurės su gūsio iki 24 kt

TAF: EEEI 301130Z 3012/0112 34010KT 9999 OVC012 BECMG 3018/3020 NSW SCT015 TEMPO 3016/0104 35014G24KT

Orai ataskaitas ir orų prognozės (METAR, TAF).

turimą stotys yra geltonos ir raudonos taškus žemėlapyje.

Perkelti pele per norėdami pamatyti stoties vardą.

Tada spustelėkite, norėdami matyti oro stebėjimo ir prognozės.

Norėdami pakeisti žemėlapį: spustelėkite ant žalios mygtukų su juodo kryžiaus žemyn,; žalią mygtuką su brūkšneliu, jei norite nutolinti; arba žalių rodyklių gretimoms žemėlapius.


METAR-TAF: